createdAt,value
2022-08-19T00:01:57.476Z,19.23
2022-08-19T00:06:00.510Z,19.21
2022-08-19T00:10:02.044Z,19.18
2022-08-19T00:14:04.643Z,19.12
2022-08-19T00:18:06.361Z,19.08
2022-08-19T00:22:09.578Z,19.08
2022-08-19T00:26:12.072Z,19.00
2022-08-19T00:30:13.816Z,18.95
2022-08-19T00:34:15.681Z,18.89
2022-08-19T00:38:17.192Z,18.81
2022-08-19T00:42:36.851Z,18.79
2022-08-19T00:46:40.719Z,18.78
2022-08-19T00:50:51.858Z,18.81
2022-08-19T00:54:54.238Z,18.83
2022-08-19T00:58:59.076Z,18.71
2022-08-19T01:03:00.658Z,18.64
2022-08-19T01:07:02.773Z,18.62
2022-08-19T01:11:05.166Z,18.63
2022-08-19T01:15:09.018Z,18.64
2022-08-19T01:19:43.765Z,18.63
2022-08-19T01:23:46.179Z,18.61
2022-08-19T01:27:50.374Z,18.60
2022-08-19T01:31:55.037Z,18.60
2022-08-19T01:36:09.257Z,18.56
2022-08-19T01:40:11.603Z,18.49
2022-08-19T01:44:17.654Z,18.46
2022-08-19T01:48:20.704Z,18.42
2022-08-19T01:52:22.113Z,18.37
2022-08-19T01:56:24.601Z,18.29
2022-08-19T02:00:28.969Z,18.19
2022-08-19T02:04:30.501Z,18.18
2022-08-19T02:08:35.605Z,18.17
2022-08-19T02:12:37.212Z,18.15
2022-08-19T02:16:39.411Z,18.07
2022-08-19T02:20:42.265Z,18.01
2022-08-19T02:24:43.709Z,17.96
2022-08-19T02:28:45.097Z,17.96
2022-08-19T02:32:46.958Z,17.97
2022-08-19T02:36:51.903Z,17.91
2022-08-19T02:40:59.910Z,17.89
2022-08-19T02:45:01.398Z,17.90
2022-08-19T02:49:07.740Z,17.88
2022-08-19T02:53:09.205Z,17.83
2022-08-19T02:57:10.740Z,17.78
2022-08-19T03:01:20.111Z,17.74
2022-08-19T03:05:25.263Z,17.68
2022-08-19T03:09:43.591Z,17.64
2022-08-19T03:13:45.728Z,17.62
2022-08-19T03:17:47.385Z,17.60
2022-08-19T03:21:49.274Z,17.55
2022-08-19T03:25:58.208Z,17.52
2022-08-19T03:30:15.358Z,17.47
2022-08-19T03:34:28.298Z,17.42
2022-08-19T03:38:30.145Z,17.38
2022-08-19T03:42:47.780Z,17.34
2022-08-19T03:46:56.270Z,17.26
2022-08-19T03:50:59.878Z,17.22
2022-08-19T03:55:01.897Z,17.10
2022-08-19T03:59:04.814Z,17.04
2022-08-19T04:03:06.501Z,17.03
2022-08-19T04:07:09.233Z,17.02
2022-08-19T04:11:15.352Z,16.99
2022-08-19T04:15:16.902Z,16.97
2022-08-19T04:19:19.526Z,16.91
2022-08-19T04:23:20.985Z,16.89
2022-08-19T04:27:22.670Z,16.90
2022-08-19T04:31:28.599Z,16.84
2022-08-19T04:35:36.125Z,16.80
2022-08-19T04:39:58.689Z,16.77
2022-08-19T04:44:04.595Z,16.70
2022-08-19T04:48:27.184Z,16.71
2022-08-19T04:52:28.089Z,16.72
2022-08-19T04:56:30.056Z,16.78
2022-08-19T05:00:31.457Z,16.80
2022-08-19T05:04:40.097Z,16.81
2022-08-19T05:08:43.993Z,16.80
2022-08-19T05:12:45.765Z,16.74
2022-08-19T05:16:47.265Z,16.69
2022-08-19T05:21:07.574Z,16.67
2022-08-19T05:25:13.913Z,16.71
2022-08-19T05:29:19.707Z,16.76
2022-08-19T05:33:25.623Z,16.75
2022-08-19T05:37:28.376Z,16.66
2022-08-19T05:41:31.466Z,16.60
2022-08-19T05:45:33.638Z,16.58
2022-08-19T05:49:37.447Z,16.65
2022-08-19T05:53:38.825Z,16.77
2022-08-19T05:57:40.998Z,16.87
2022-08-19T06:01:43.968Z,16.93
2022-08-19T06:05:51.575Z,17.06
2022-08-19T06:10:00.246Z,17.17
2022-08-19T06:14:16.498Z,17.33
2022-08-19T06:18:18.468Z,17.48
2022-08-19T06:22:19.922Z,17.62
2022-08-19T06:26:22.661Z,17.77
2022-08-19T06:30:24.149Z,18.02
2022-08-19T06:34:28.262Z,18.20
2022-08-19T06:38:29.817Z,18.30
2022-08-19T06:42:32.049Z,18.52
2022-08-19T06:46:33.543Z,18.79
2022-08-19T06:50:39.481Z,19.11
2022-08-19T06:54:56.115Z,19.56
2022-08-19T06:58:59.313Z,19.91
2022-08-19T07:03:06.015Z,20.17
2022-08-19T07:07:19.907Z,20.48
2022-08-19T07:11:22.056Z,20.83
2022-08-19T07:15:26.106Z,21.13
2022-08-19T07:19:29.867Z,21.41
2022-08-19T07:23:31.366Z,21.71
2022-08-19T07:27:33.599Z,22.09
2022-08-19T07:31:37.526Z,22.45
2022-08-19T07:35:39.003Z,22.81
2022-08-19T07:39:40.613Z,23.30
2022-08-19T07:43:43.924Z,23.60
2022-08-19T07:47:50.463Z,23.93
2022-08-19T07:52:03.820Z,24.30
2022-08-19T07:56:06.009Z,24.60
2022-08-19T08:00:08.198Z,25.02
2022-08-19T08:04:28.197Z,25.33
2022-08-19T08:08:48.948Z,25.57
2022-08-19T08:13:08.718Z,25.90
2022-08-19T08:17:13.413Z,26.30
2022-08-19T08:21:14.877Z,26.57
2022-08-19T08:25:25.032Z,26.59
2022-08-19T08:29:34.879Z,26.84
2022-08-19T08:33:37.198Z,27.15
2022-08-19T08:37:39.628Z,27.44
2022-08-19T08:41:45.636Z,27.64
2022-08-19T08:45:56.012Z,27.68
2022-08-19T08:50:12.169Z,27.73
2022-08-19T08:54:18.703Z,27.86
2022-08-19T08:58:32.649Z,27.79
2022-08-19T09:02:34.278Z,27.80
2022-08-19T09:07:26.468Z,27.91
2022-08-19T09:11:42.973Z,28.19
2022-08-19T09:15:50.345Z,28.28
2022-08-19T09:19:56.273Z,28.31
2022-08-19T09:23:59.472Z,28.33
2022-08-19T09:28:05.604Z,28.52
2022-08-19T09:32:07.293Z,28.64
2022-08-19T09:36:35.302Z,28.44
2022-08-19T09:40:38.575Z,28.28
2022-08-19T09:44:42.059Z,28.00
2022-08-19T09:48:45.413Z,27.62
2022-08-19T09:52:55.264Z,27.57
2022-08-19T09:57:01.256Z,27.78
2022-08-19T10:01:07.849Z,27.64
2022-08-19T10:05:27.873Z,28.09
2022-08-19T10:09:33.778Z,28.54
2022-08-19T10:13:36.065Z,28.52
2022-08-19T10:17:38.161Z,27.93
2022-08-19T10:21:41.084Z,27.93
2022-08-19T10:25:43.634Z,28.00
2022-08-19T10:29:46.406Z,28.49
2022-08-19T10:33:54.103Z,28.69
2022-08-19T10:38:00.170Z,28.44
2022-08-19T10:42:08.025Z,27.94
2022-08-19T10:46:13.843Z,27.79
2022-08-19T10:50:34.424Z,28.26
2022-08-19T10:54:55.174Z,28.63
2022-08-19T10:58:58.704Z,29.03
2022-08-19T11:03:00.208Z,28.78
2022-08-19T11:07:01.760Z,28.47
2022-08-19T11:11:04.150Z,28.75
2022-08-19T11:15:09.261Z,29.03
2022-08-19T11:19:12.721Z,29.24
2022-08-19T11:23:15.478Z,29.17
2022-08-19T11:27:16.893Z,28.77
2022-08-19T11:31:22.630Z,28.86
2022-08-19T11:35:26.209Z,28.77
2022-08-19T11:39:28.936Z,28.39
2022-08-19T11:43:36.737Z,28.03
2022-08-19T11:47:39.601Z,27.52
2022-08-19T11:51:44.128Z,27.13
2022-08-19T11:55:45.786Z,26.87
2022-08-19T11:59:52.013Z,26.69
2022-08-19T12:03:55.358Z,26.95
2022-08-19T12:07:57.084Z,27.47
2022-08-19T12:11:58.522Z,28.03
2022-08-19T12:16:00.554Z,28.64
2022-08-19T12:20:02.374Z,28.83
2022-08-19T12:24:06.266Z,28.68
2022-08-19T12:28:08.318Z,28.34
2022-08-19T12:32:10.382Z,28.07
2022-08-19T12:36:16.467Z,27.82
2022-08-19T12:40:20.019Z,27.59
2022-08-19T12:44:29.420Z,27.28
2022-08-19T12:48:35.164Z,27.03
2022-08-19T12:52:38.104Z,26.80
2022-08-19T12:56:39.599Z,26.62
2022-08-19T13:00:41.660Z,26.47
2022-08-19T13:04:43.203Z,26.38
2022-08-19T13:08:46.459Z,26.35
2022-08-19T13:12:51.809Z,26.36
2022-08-19T13:16:53.752Z,26.42
2022-08-19T13:20:55.153Z,26.50
2022-08-19T13:24:56.750Z,26.61
2022-08-19T13:29:17.018Z,26.90
2022-08-19T13:33:18.781Z,27.11
2022-08-19T13:37:40.336Z,27.52
2022-08-19T13:41:48.893Z,27.80
2022-08-19T13:45:57.239Z,27.73
2022-08-19T13:49:59.211Z,27.77
2022-08-19T13:54:00.519Z,28.04
2022-08-19T13:58:04.864Z,28.27
2022-08-19T14:02:06.448Z,28.39
2022-08-19T14:06:08.105Z,28.52
2022-08-19T14:10:14.653Z,28.83
2022-08-19T14:14:16.616Z,28.92
2022-08-19T14:18:19.179Z,29.06
2022-08-19T14:22:22.222Z,29.16
2022-08-19T14:26:24.392Z,29.28
2022-08-19T14:30:29.486Z,29.33
2022-08-19T14:34:32.869Z,29.31
2022-08-19T14:38:34.630Z,29.45
2022-08-19T14:42:36.165Z,29.70
2022-08-19T14:46:37.614Z,29.85
2022-08-19T14:50:39.053Z,29.89
2022-08-19T14:54:40.488Z,29.93
2022-08-19T14:58:44.008Z,30.01
2022-08-19T15:02:45.497Z,30.06
2022-08-19T15:06:47.045Z,29.92
2022-08-19T15:10:48.709Z,29.93
2022-08-19T15:14:56.181Z,30.03
2022-08-19T15:19:00.601Z,30.16
2022-08-19T15:23:02.053Z,30.22
2022-08-19T15:27:03.977Z,30.23
2022-08-19T15:31:06.280Z,30.23
2022-08-19T15:35:08.358Z,30.07
2022-08-19T15:39:10.299Z,29.99
2022-08-19T15:43:11.719Z,30.12
2022-08-19T15:47:14.637Z,30.21
2022-08-19T15:51:16.246Z,30.22
2022-08-19T15:55:32.440Z,30.30
2022-08-19T15:59:54.432Z,30.40
2022-08-19T16:04:16.619Z,30.20
2022-08-19T16:08:18.360Z,29.80
2022-08-19T16:12:19.937Z,29.25
2022-08-19T16:16:24.170Z,28.65
2022-08-19T16:20:33.120Z,28.22
2022-08-19T16:24:38.540Z,28.14
2022-08-19T16:28:40.869Z,27.97
2022-08-19T16:32:45.520Z,27.84
2022-08-19T16:36:47.101Z,27.68
2022-08-19T16:40:53.778Z,27.59
2022-08-19T16:44:55.195Z,27.44
2022-08-19T16:48:56.523Z,27.21
2022-08-19T16:52:58.953Z,27.07
2022-08-19T16:57:00.396Z,26.90
2022-08-19T17:01:04.302Z,26.64
2022-08-19T17:05:09.986Z,26.46
2022-08-19T17:09:11.577Z,26.26
2022-08-19T17:13:16.202Z,26.06
2022-08-19T17:17:18.234Z,25.94
2022-08-19T17:21:27.377Z,25.84
2022-08-19T17:25:31.296Z,25.73
2022-08-19T17:29:33.736Z,25.59
2022-08-19T17:33:36.449Z,25.51
2022-08-19T17:37:43.126Z,25.34
2022-08-19T17:41:44.610Z,25.25
2022-08-19T17:45:46.487Z,25.14
2022-08-19T17:49:48.353Z,25.09
2022-08-19T17:53:51.539Z,25.00
2022-08-19T17:57:52.925Z,24.94
2022-08-19T18:01:54.720Z,24.90
2022-08-19T18:05:57.033Z,24.81
2022-08-19T18:09:58.613Z,24.78
2022-08-19T18:14:03.330Z,24.74
2022-08-19T18:18:05.317Z,24.69
2022-08-19T18:22:27.061Z,24.58
2022-08-19T18:26:30.090Z,24.53
2022-08-19T18:30:34.372Z,24.42
2022-08-19T18:34:36.831Z,24.34
2022-08-19T18:38:57.028Z,24.26
2022-08-19T18:43:17.029Z,24.17
2022-08-19T18:47:37.126Z,24.05
2022-08-19T18:51:38.525Z,23.90
2022-08-19T18:55:40.002Z,23.84
2022-08-19T18:59:43.593Z,23.75
2022-08-19T19:03:49.108Z,23.64
2022-08-19T19:07:50.732Z,23.51
2022-08-19T19:11:58.961Z,23.43
2022-08-19T19:16:03.426Z,23.34
2022-08-19T19:20:05.754Z,23.21
2022-08-19T19:24:09.087Z,23.09
2022-08-19T19:28:10.535Z,22.98
2022-08-19T19:32:26.861Z,22.87
2022-08-19T19:36:28.321Z,22.71
2022-08-19T19:40:29.785Z,22.53
2022-08-19T19:44:32.561Z,22.38
2022-08-19T19:48:35.462Z,22.23
2022-08-19T19:52:37.660Z,22.07
2022-08-19T19:56:43.341Z,21.94
2022-08-19T20:00:45.271Z,21.78
2022-08-19T20:04:46.658Z,21.66
2022-08-19T20:09:06.848Z,21.50
2022-08-19T20:13:09.128Z,21.37
2022-08-19T20:17:10.665Z,21.23
2022-08-19T20:21:13.740Z,21.09
2022-08-19T20:25:16.904Z,20.96
2022-08-19T20:29:38.848Z,20.83
2022-08-19T20:33:41.559Z,20.70
2022-08-19T20:37:42.955Z,20.60
2022-08-19T20:41:44.813Z,20.37
2022-08-19T20:45:47.262Z,20.23
2022-08-19T20:49:48.726Z,20.13
2022-08-19T20:53:51.061Z,20.05
2022-08-19T20:57:52.772Z,19.99
2022-08-19T21:01:54.611Z,19.92
2022-08-19T21:05:57.585Z,19.81
2022-08-19T21:09:59.166Z,19.63
2022-08-19T21:14:00.680Z,19.51
2022-08-19T21:18:02.979Z,19.40
2022-08-19T21:22:05.390Z,19.44
2022-08-19T21:26:08.356Z,19.43
2022-08-19T21:30:10.744Z,19.39
2022-08-19T21:34:12.628Z,19.35
2022-08-19T21:38:14.385Z,19.34
2022-08-19T21:42:16.418Z,19.21
2022-08-19T21:46:17.880Z,19.16
2022-08-19T21:50:19.659Z,19.15
2022-08-19T21:54:21.104Z,19.11
2022-08-19T21:58:30.442Z,19.06
2022-08-19T22:02:32.468Z,19.03
2022-08-19T22:06:34.034Z,18.99
2022-08-19T22:10:36.349Z,18.95
2022-08-19T22:14:40.026Z,18.88
2022-08-19T22:18:42.270Z,18.91
2022-08-19T22:22:51.917Z,18.89
2022-08-19T22:26:53.346Z,18.81
2022-08-19T22:30:55.878Z,18.69
2022-08-19T22:34:58.693Z,18.62
2022-08-19T22:39:00.096Z,18.61
2022-08-19T22:43:06.064Z,18.57
2022-08-19T22:47:07.737Z,18.53
2022-08-19T22:51:27.908Z,18.51
2022-08-19T22:55:31.183Z,18.48
2022-08-19T22:59:32.974Z,18.46
2022-08-19T23:03:35.097Z,18.47
2022-08-19T23:07:37.013Z,18.43
2022-08-19T23:11:42.138Z,18.37
2022-08-19T23:15:46.106Z,18.26
2022-08-19T23:19:47.521Z,18.18
2022-08-19T23:23:48.975Z,18.15
2022-08-19T23:28:19.640Z,18.07
2022-08-19T23:36:41.113Z,18.00
2022-08-19T23:40:43.089Z,17.97
2022-08-19T23:44:52.260Z,17.94
2022-08-19T23:48:54.745Z,17.87
2022-08-19T23:52:58.009Z,17.91
2022-08-19T23:56:59.714Z,17.87
